Time;durP1;ratioP1;P1;durP2;ratioP2;P2;SDS_P1;SDS_P2;PMS_P1;PMS_P2;Temp;Humidity;BMP_temperature;BMP_pressure;BME280_temperature;BME280_humidity;BME280_pressure;Samples;Min_cycle;Max_cycle;Signal;HPM_P1;HPM_P2
2022/06/03 00:01:56;;;;;;;4.32;3.03;;;;;;;;;;5323717;28;20020;-69
2022/06/03 00:04:46;;;;;;;6.00;2.97;;;;;;;;;;5322384;28;20080;-69
2022/06/03 00:07:46;;;;;;;3.65;2.97;;;;;;;;;;5323418;28;20031;-69
2022/06/03 00:10:27;;;;;;;4.90;3.20;;;;;;;;;;5308909;28;20382;-69
2022/06/03 00:13:09;;;;;;;5.47;2.88;;;;;;;;;;5323971;28;20381;-69
2022/06/03 00:15:49;;;;;;;4.43;3.30;;;;;;;;;;5323150;28;20048;-69
2022/06/03 00:18:26;;;;;;;6.47;4.15;;;;;;;;;;5322375;28;20038;-70
2022/06/03 00:21:02;;;;;;;5.05;3.45;;;;;;;;;;5323719;28;20157;-68
2022/06/03 00:23:36;;;;;;;4.70;3.20;;;;;;;;;;5323460;28;20050;-69
2022/06/03 00:26:10;;;;;;;8.38;4.00;;;;;;;;;;5322694;28;20031;-69
2022/06/03 00:28:50;;;;;;;5.85;3.63;;;;;;;;;;5323281;28;20030;-70
2022/06/03 00:31:27;;;;;;;3.58;3.25;;;;;;;;;;5322345;28;20028;-70
2022/06/03 00:34:08;;;;;;;3.47;3.13;;;;;;;;;;5323394;28;20037;-70
2022/06/03 00:36:49;;;;;;;6.93;3.25;;;;;;;;;;5323207;28;20063;-69
2022/06/03 00:39:20;;;;;;;3.58;3.03;;;;;;;;;;5321939;28;20036;-70
2022/06/03 00:41:55;;;;;;;3.55;3.13;;;;;;;;;;5323737;28;20016;-70
2022/06/03 00:44:35;;;;;;;4.35;3.95;;;;;;;;;;5322953;28;20345;-70
2022/06/03 00:47:25;;;;;;;3.97;2.92;;;;;;;;;;5322321;28;20016;-70
2022/06/03 00:50:05;;;;;;;4.78;3.28;;;;;;;;;;5323521;28;20107;-70
2022/06/03 00:52:45;;;;;;;3.92;3.35;;;;;;;;;;5322570;28;20425;-70
2022/06/03 00:55:16;;;;;;;3.40;3.10;;;;;;;;;;5323117;28;20032;-70
2022/06/03 00:58:03;;;;;;;4.55;3.53;;;;;;;;;;5322980;28;20039;-69
2022/06/03 01:00:52;;;;;;;6.90;3.85;;;;;;;;;;5322669;28;20038;-69
2022/06/03 01:03:32;;;;;;;6.25;3.53;;;;;;;;;;5326831;28;20367;-70
2022/06/03 01:06:24;;;;;;;4.20;3.03;;;;;;;;;;5326943;28;20016;-70
2022/06/03 01:09:02;;;;;;;3.83;3.47;;;;;;;;;;5327066;28;20058;-69
2022/06/03 01:12:00;;;;;;;5.15;3.17;;;;;;;;;;5326959;28;20020;-69
2022/06/03 01:14:36;;;;;;;5.35;3.55;;;;;;;;;;5325845;28;20043;-69
2022/06/03 01:17:22;;;;;;;3.95;3.53;;;;;;;;;;5326542;28;20043;-69
2022/06/03 01:20:15;;;;;;;3.70;3.30;;;;;;;;;;5326810;28;20036;-70
2022/06/03 01:22:46;;;;;;;3.92;3.15;;;;;;;;;;5325893;28;20518;-70
2022/06/03 01:25:17;;;;;;;4.60;3.55;;;;;;;;;;5326571;28;20099;-70
2022/06/03 01:28:04;;;;;;;4.60;3.67;;;;;;;;;;5325880;28;20269;-70
2022/06/03 01:30:53;;;;;;;4.95;3.75;;;;;;;;;;5326418;28;20254;-70
2022/06/03 01:33:39;;;;;;;6.75;3.67;;;;;;;;;;5326025;28;20047;-69
2022/06/03 01:36:13;;;;;;;4.43;3.13;;;;;;;;;;5325593;28;20015;-70
2022/06/03 01:38:44;;;;;;;3.88;3.58;;;;;;;;;;5326328;28;20019;-69
2022/06/03 01:41:34;;;;;;;4.22;3.40;;;;;;;;;;5326292;28;20492;-69
2022/06/03 01:44:28;;;;;;;4.20;3.53;;;;;;;;;;5326133;28;20031;-70
2022/06/03 01:47:19;;;;;;;4.30;3.05;;;;;;;;;;5326103;28;20019;-68
2022/06/03 01:50:09;;;;;;;4.03;3.63;;;;;;;;;;5325489;28;20023;-69
2022/06/03 01:53:03;;;;;;;3.63;3.33;;;;;;;;;;5325903;28;20138;-69
2022/06/03 01:55:45;;;;;;;4.75;3.00;;;;;;;;;;5325891;28;20019;-68
2022/06/03 01:58:35;;;;;;;3.53;3.22;;;;;;;;;;5325825;28;20090;-69
2022/06/03 02:01:16;;;;;;;5.18;3.22;;;;;;;;;;5325931;28;20035;-69
2022/06/03 02:03:50;;;;;;;4.10;3.70;;;;;;;;;;5324915;28;20143;-70
2022/06/03 02:06:21;;;;;;;5.85;3.55;;;;;;;;;;5325320;28;20035;-69
2022/06/03 02:09:01;;;;;;;5.28;4.18;;;;;;;;;;5325848;28;20153;-69
2022/06/03 02:12:11;;;;;;;3.85;3.53;;;;;;;;;;5325145;28;20047;-69
2022/06/03 02:14:54;;;;;;;4.47;4.07;;;;;;;;;;5260125;28;20025;-69
2022/06/03 02:17:37;;;;;;;5.07;3.38;;;;;;;;;;5258892;28;20890;-69
2022/06/03 02:20:17;;;;;;;5.80;3.65;;;;;;;;;;5306470;28;20453;-69
2022/06/03 02:22:51;;;;;;;3.58;3.28;;;;;;;;;;5325452;28;20024;-69
2022/06/03 02:25:41;;;;;;;5.65;3.50;;;;;;;;;;5324113;28;20100;-68
2022/06/03 02:28:22;;;;;;;3.80;3.40;;;;;;;;;;5325514;28;20015;-68
2022/06/03 02:30:54;;;;;;;4.47;3.97;;;;;;;;;;5324943;28;20451;-69
2022/06/03 02:33:43;;;;;;;4.35;3.60;;;;;;;;;;5324910;28;20122;-69
2022/06/03 02:36:40;;;;;;;9.32;3.78;;;;;;;;;;5325189;28;20512;-69
2022/06/03 02:39:30;;;;;;;10.82;4.18;;;;;;;;;;5324372;28;20043;-68
2022/06/03 02:42:01;;;;;;;5.47;4.13;;;;;;;;;;5325002;28;20491;-69
2022/06/03 02:44:42;;;;;;;6.45;3.67;;;;;;;;;;5324975;28;20133;-69
2022/06/03 02:47:32;;;;;;;4.10;3.72;;;;;;;;;;5324248;28;20323;-69
2022/06/03 02:50:13;;;;;;;5.25;3.40;;;;;;;;;;5324721;28;20023;-70
2022/06/03 02:53:02;;;;;;;6.70;3.90;;;;;;;;;;5324013;28;20024;-70
2022/06/03 02:55:39;;;;;;;3.75;3.45;;;;;;;;;;5324773;28;20063;-69
2022/06/03 02:58:24;;;;;;;9.38;4.57;;;;;;;;;;5324601;28;20031;-70
2022/06/03 03:01:04;;;;;;;4.88;3.55;;;;;;;;;;5324038;28;20040;-70
2022/06/03 03:03:50;;;;;;;5.05;4.28;;;;;;;;;;5324489;28;20063;-70
2022/06/03 03:06:41;;;;;;;4.57;3.97;;;;;;;;;;5323284;28;20062;-70
2022/06/03 03:09:24;;;;;;;5.88;3.83;;;;;;;;;;5324166;28;20164;-68
2022/06/03 03:12:01;;;;;;;4.30;3.90;;;;;;;;;;5324669;28;20375;-69
2022/06/03 03:14:35;;;;;;;5.57;4.30;;;;;;;;;;5323310;28;20521;-70
2022/06/03 03:17:09;;;;;;;5.35;4.43;;;;;;;;;;5323799;28;20039;-70
2022/06/03 03:19:59;;;;;;;7.32;4.70;;;;;;;;;;5324002;28;20118;-70
2022/06/03 03:22:49;;;;;;;5.00;4.38;;;;;;;;;;5323024;28;20108;-71
2022/06/03 03:25:29;;;;;;;5.82;4.78;;;;;;;;;;5323848;28;20031;-71
2022/06/03 03:28:15;;;;;;;4.55;4.15;;;;;;;;;;5323491;28;20030;-70
2022/06/03 03:30:46;;;;;;;8.63;5.43;;;;;;;;;;5324090;28;20455;-70
2022/06/03 03:33:20;;;;;;;10.35;4.70;;;;;;;;;;5324050;28;20038;-70
2022/06/03 03:35:59;;;;;;;4.55;4.15;;;;;;;;;;5323291;28;20361;-69
2022/06/03 03:38:49;;;;;;;5.57;4.97;;;;;;;;;;5323459;28;20020;-70
2022/06/03 03:41:36;;;;;;;5.13;4.72;;;;;;;;;;5322921;28;20073;-70
2022/06/03 03:44:13;;;;;;;5.82;5.32;;;;;;;;;;5323814;28;20016;-70
2022/06/03 03:47:09;;;;;;;5.03;4.30;;;;;;;;;;5323714;28;20020;-70
2022/06/03 03:49:55;;;;;;;6.15;4.80;;;;;;;;;;5323104;28;20446;-70
2022/06/03 03:52:35;;;;;;;10.07;4.72;;;;;;;;;;5323400;28;20499;-70
2022/06/03 03:55:06;;;;;;;6.50;5.22;;;;;;;;;;5323492;28;20024;-69
2022/06/03 03:57:44;;;;;;;5.38;4.53;;;;;;;;;;5322942;28;20034;-69
2022/06/03 04:00:33;;;;;;;7.32;4.90;;;;;;;;;;5323359;28;20039;-69
2022/06/03 04:03:23;;;;;;;5.03;4.63;;;;;;;;;;5322872;28;20045;-69
2022/06/03 04:06:13;;;;;;;6.03;4.95;;;;;;;;;;5324045;28;20505;-70
2022/06/03 04:09:04;;;;;;;7.95;4.57;;;;;;;;;;5323512;28;20478;-70
2022/06/03 04:11:50;;;;;;;5.78;5.15;;;;;;;;;;5290714;28;20442;-69
2022/06/03 04:14:54;;;;;;;7.18;5.03;;;;;;;;;;5323125;28;20182;-69
2022/06/03 04:17:37;;;;;;;5.85;5.18;;;;;;;;;;5322248;28;20078;-69
2022/06/03 04:20:21;;;;;;;6.15;5.20;;;;;;;;;;5323063;28;20042;-69
2022/06/03 04:23:11;;;;;;;10.27;5.30;;;;;;;;;;5323625;28;20011;-69
2022/06/03 04:26:01;;;;;;;5.57;4.80;;;;;;;;;;5322455;28;20093;-69
2022/06/03 04:28:46;;;;;;;5.55;4.85;;;;;;;;;;5323014;28;20036;-69
2022/06/03 04:31:20;;;;;;;6.38;4.97;;;;;;;;;;5322711;28;20183;-70
2022/06/03 04:33:51;;;;;;;5.95;5.35;;;;;;;;;;5323605;28;20028;-70
2022/06/03 04:36:23;;;;;;;8.07;5.80;;;;;;;;;;5324691;28;20024;-70
2022/06/03 04:39:06;;;;;;;7.25;5.30;;;;;;;;;;5326742;28;20028;-70
2022/06/03 04:41:46;;;;;;;7.18;4.43;;;;;;;;;;5327298;28;20042;-69
2022/06/03 04:44:20;;;;;;;8.45;5.13;;;;;;;;;;5327262;28;20031;-70
2022/06/03 04:46:51;;;;;;;5.53;4.90;;;;;;;;;;5326807;28;20382;-70
2022/06/03 04:49:35;;;;;;;5.50;5.00;;;;;;;;;;5326814;28;20035;-70
2022/06/03 04:52:34;;;;;;;6.88;5.57;;;;;;;;;;5326593;28;20315;-70
2022/06/03 04:55:23;;;;;;;6.15;5.30;;;;;;;;;;5327055;28;20023;-70
2022/06/03 04:58:03;;;;;;;6.28;5.28;;;;;;;;;;5327730;28;20394;-69
2022/06/03 05:00:35;;;;;;;6.13;5.60;;;;;;;;;;5326232;28;20427;-69
2022/06/03 05:03:25;;;;;;;5.90;5.30;;;;;;;;;;5326963;28;20031;-69
2022/06/03 05:06:14;;;;;;;5.80;5.22;;;;;;;;;;5326412;28;20337;-69
2022/06/03 05:09:04;;;;;;;5.97;5.40;;;;;;;;;;5326975;28;20153;-69
2022/06/03 05:11:54;;;;;;;6.88;5.20;;;;;;;;;;5326642;28;20027;-69
2022/06/03 05:14:28;;;;;;;5.72;5.13;;;;;;;;;;5325482;28;20031;-69
2022/06/03 05:17:18;;;;;;;6.50;4.93;;;;;;;;;;5326861;28;20058;-69
2022/06/03 05:20:09;;;;;;;5.43;4.65;;;;;;;;;;5325832;28;20067;-69
2022/06/03 05:22:40;;;;;;;5.60;5.07;;;;;;;;;;5294722;28;20023;-69
2022/06/03 05:25:11;;;;;;;6.18;5.68;;;;;;;;;;5326456;28;20378;-70
2022/06/03 05:28:01;;;;;;;6.13;5.57;;;;;;;;;;5325573;28;20023;-69
2022/06/03 05:30:51;;;;;;;7.07;5.63;;;;;;;;;;5326249;28;20258;-70
2022/06/03 05:33:34;;;;;;;5.13;4.68;;;;;;;;;;5326092;28;20023;-70
2022/06/03 05:36:11;;;;;;;8.60;5.43;;;;;;;;;;5325368;28;20016;-70
2022/06/03 05:39:01;;;;;;;5.45;4.97;;;;;;;;;;5326135;28;20016;-69
2022/06/03 05:44:44;;;;;;;6.10;5.07;;;;;;;;;;5325799;28;20482;-69
2022/06/03 05:47:15;;;;;;;5.82;4.82;;;;;;;;;;5325704;28;20019;-69
2022/06/03 05:50:07;;;;;;;5.82;5.22;;;;;;;;;;5325461;28;20065;-69
2022/06/03 05:52:38;;;;;;;5.25;4.22;;;;;;;;;;5325887;28;20327;-69
2022/06/03 05:55:34;;;;;;;5.88;4.50;;;;;;;;;;5325031;28;20450;-69
2022/06/03 05:58:05;;;;;;;6.60;4.78;;;;;;;;;;5325866;28;20270;-69
2022/06/03 06:00:43;;;;;;;5.80;4.95;;;;;;;;;;5325818;28;20054;-69
2022/06/03 06:03:28;;;;;;;5.03;4.63;;;;;;;;;;5325063;28;20258;-69
2022/06/03 06:06:15;;;;;;;6.97;4.20;;;;;;;;;;5325902;28;20030;-69
2022/06/03 06:09:05;;;;;;;12.30;6.38;;;;;;;;;;5325875;28;20366;-69
2022/06/03 06:12:01;;;;;;;5.72;5.18;;;;;;;;;;5325523;28;20096;-69
2022/06/03 06:14:46;;;;;;;5.85;5.28;;;;;;;;;;5325403;28;20027;-69
2022/06/03 06:17:30;;;;;;;5.40;4.47;;;;;;;;;;5324550;28;20150;-69
2022/06/03 06:20:19;;;;;;;6.28;4.65;;;;;;;;;;5325261;28;20111;-69
2022/06/03 06:22:53;;;;;;;7.32;5.88;;;;;;;;;;5325458;28;20395;-70
2022/06/03 06:25:33;;;;;;;6.63;5.75;;;;;;;;;;5324290;28;20016;-70
2022/06/03 06:28:17;;;;;;;7.30;4.88;;;;;;;;;;5325201;28;20110;-70
2022/06/03 06:30:48;;;;;;;7.75;5.75;;;;;;;;;;5324382;28;20119;-69
2022/06/03 06:33:32;;;;;;;5.45;4.80;;;;;;;;;;5324577;28;20110;-71
2022/06/03 06:36:19;;;;;;;7.75;5.20;;;;;;;;;;5325205;28;20019;-70
2022/06/03 06:39:08;;;;;;;5.55;4.97;;;;;;;;;;5324317;28;20063;-69
2022/06/03 06:42:02;;;;;;;5.55;4.55;;;;;;;;;;5324924;28;20016;-70
2022/06/03 06:44:52;;;;;;;6.55;3.60;;;;;;;;;;5294532;28;20035;-70
2022/06/03 06:47:30;;;;;;;4.25;3.40;;;;;;;;;;5324466;28;20470;-70
2022/06/03 06:50:22;;;;;;;4.13;3.33;;;;;;;;;;5324831;28;20012;-71
2022/06/03 06:52:53;;;;;;;3.90;3.53;;;;;;;;;;5324428;28;20023;-70
2022/06/03 06:55:32;;;;;;;3.90;3.40;;;;;;;;;;5324457;28;20153;-71
2022/06/03 06:58:06;;;;;;;3.92;3.58;;;;;;;;;;5324064;28;20020;-70
2022/06/03 07:00:40;;;;;;;5.10;3.80;;;;;;;;;;5324445;28;20034;-68
2022/06/03 07:03:17;;;;;;;7.28;4.43;;;;;;;;;;5324369;28;20061;-70
2022/06/03 07:05:53;;;;;;;7.65;4.45;;;;;;;;;;5323923;28;20026;-70
2022/06/03 07:08:27;;;;;;;7.60;3.95;;;;;;;;;;5324097;28;20027;-70
2022/06/03 07:11:06;;;;;;;6.20;4.22;;;;;;;;;;5324550;28;20020;-70
2022/06/03 07:13:45;;;;;;;7.22;4.28;;;;;;;;;;5323837;28;20201;-70
2022/06/03 07:22:24;;;;;;;7.10;3.20;;;;;;;;;;5324183;28;19904;-70
2022/06/03 07:25:01;;;;;;;6.50;4.07;;;;;;;;;;5324359;28;20027;-72
2022/06/03 07:27:44;;;;;;;6.53;3.45;;;;;;;;;;5322828;28;20050;-71
2022/06/03 07:30:18;;;;;;;4.85;3.70;;;;;;;;;;5323923;28;20022;-71
2022/06/03 07:32:57;;;;;;;6.07;3.75;;;;;;;;;;5324186;28;20019;-71
2022/06/03 07:35:45;;;;;;;6.28;3.40;;;;;;;;;;5322921;28;20359;-72
2022/06/03 07:38:34;;;;;;;5.97;4.18;;;;;;;;;;5323799;28;20020;-72
2022/06/03 07:41:05;;;;;;;;;;;;;;;;;;5323129;28;20481;-71
2022/06/03 07:43:41;;;;;;;4.85;3.90;;;;;;;;;;5323817;28;19912;-71
2022/06/03 07:46:14;;;;;;;5.78;4.10;;;;;;;;;;5323515;28;20012;-72
2022/06/03 07:48:45;;;;;;;8.18;4.70;;;;;;;;;;5322807;28;20599;-69
2022/06/03 07:51:16;;;;;;;6.85;4.63;;;;;;;;;;5323480;28;20052;-68
2022/06/03 07:53:56;;;;;;;5.40;4.10;;;;;;;;;;5323501;28;20100;-68
2022/06/03 07:56:29;;;;;;;5.60;3.90;;;;;;;;;;5322320;28;20284;-69
2022/06/03 07:59:03;;;;;;;6.75;4.60;;;;;;;;;;5323216;28;20054;-68
2022/06/03 08:01:35;;;;;;;4.80;4.40;;;;;;;;;;5322364;28;20015;-69
2022/06/03 08:04:07;;;;;;;5.60;4.88;;;;;;;;;;5323166;28;20024;-69
2022/06/03 08:12:29;;;;;;;7.07;4.85;;;;;;;;;;5347872;27;20061;-69
2022/06/03 08:15:18;;;;;;;8.98;5.18;;;;;;;;;;5349115;27;20019;-70
2022/06/03 08:17:50;;;;;;;6.10;5.50;;;;;;;;;;5305739;28;20119;-70
2022/06/03 08:20:23;;;;;;;5.80;5.32;;;;;;;;;;5306162;28;20199;-69
2022/06/03 08:22:54;;;;;;;8.35;5.57;;;;;;;;;;5305983;28;20096;-69
2022/06/03 08:25:27;;;;;;;7.30;5.07;;;;;;;;;;5306001;28;20157;-69
2022/06/03 08:27:59;;;;;;;9.38;6.50;;;;;;;;;;5306447;28;20012;-69
2022/06/03 08:30:30;;;;;;;8.30;5.97;;;;;;;;;;5305034;28;20031;-69
2022/06/03 08:33:04;;;;;;;6.53;5.60;;;;;;;;;;5306128;28;20077;-69
2022/06/03 08:35:36;;;;;;;6.00;5.50;;;;;;;;;;5305827;28;20020;-70
2022/06/03 08:38:13;;;;;;;5.90;4.85;;;;;;;;;;5305115;28;20019;-69
2022/06/03 08:40:54;;;;;;;5.00;4.47;;;;;;;;;;5306066;28;20032;-69
2022/06/03 08:43:38;;;;;;;7.47;4.55;;;;;;;;;;5305620;28;20016;-69
2022/06/03 08:46:14;;;;;;;5.53;4.15;;;;;;;;;;5305971;28;20016;-69
2022/06/03 08:48:47;;;;;;;5.38;4.32;;;;;;;;;;5305906;28;20024;-70
2022/06/03 08:51:19;;;;;;;4.50;3.80;;;;;;;;;;5304797;28;20024;-70
2022/06/03 08:53:50;;;;;;;6.00;4.05;;;;;;;;;;5306189;28;20039;-70
2022/06/03 08:56:24;;;;;;;8.13;3.87;;;;;;;;;;5305490;28;20097;-70
2022/06/03 08:58:56;;;;;;;6.25;3.63;;;;;;;;;;5305198;28;20048;-70
2022/06/03 09:01:45;;;;;;;3.85;3.35;;;;;;;;;;5305127;28;20517;-70
2022/06/03 09:04:22;;;;;;;6.38;3.97;;;;;;;;;;5305639;28;20028;-70
2022/06/03 09:07:02;;;;;;;4.63;4.07;;;;;;;;;;5305142;28;20324;-70
2022/06/03 09:09:40;;;;;;;6.60;3.47;;;;;;;;;;5305367;28;20020;-70
2022/06/03 09:12:19;;;;;;;5.88;3.97;;;;;;;;;;5304617;28;20048;-71
2022/06/03 09:14:52;;;;;;;7.50;3.45;;;;;;;;;;5305767;28;20024;-69
2022/06/03 09:17:44;;;;;;;4.85;3.75;;;;;;;;;;5342108;27;20096;-69
2022/06/03 09:20:18;;;;;;;11.18;3.90;;;;;;;;;;5346878;27;20030;-69
2022/06/03 09:22:50;;;;;;;3.20;2.90;;;;;;;;;;5347711;27;20019;-69
2022/06/03 09:25:22;;;;;;;5.65;3.50;;;;;;;;;;5347701;27;20083;-69
2022/06/03 09:27:53;;;;;;;4.72;3.35;;;;;;;;;;5335298;27;20096;-70
2022/06/03 09:30:33;;;;;;;3.13;2.83;;;;;;;;;;5325880;28;20023;-70
2022/06/03 09:33:06;;;;;;;11.32;2.83;;;;;;;;;;5325650;28;20187;-70
2022/06/03 09:35:39;;;;;;;17.15;3.78;;;;;;;;;;5326349;28;20119;-71
2022/06/03 09:38:10;;;;;;;25.27;4.50;;;;;;;;;;5326093;28;20370;-68
2022/06/03 09:40:46;;;;;;;3.88;2.60;;;;;;;;;;5325177;28;20032;-67
2022/06/03 09:43:27;;;;;;;3.00;1.85;;;;;;;;;;5326090;28;20024;-68
2022/06/03 09:45:59;;;;;;;2.83;1.75;;;;;;;;;;5326732;28;20034;-68
2022/06/03 09:48:33;;;;;;;2.28;2.03;;;;;;;;;;5324721;28;20028;-69
2022/06/03 09:51:10;;;;;;;5.57;1.55;;;;;;;;;;5325491;28;20464;-70
2022/06/03 09:53:43;;;;;;;4.28;1.42;;;;;;;;;;5324412;28;20044;-69
2022/06/03 09:56:20;;;;;;;3.25;1.08;;;;;;;;;;5325096;28;20022;-70
2022/06/03 09:58:56;;;;;;;3.35;1.55;;;;;;;;;;5326167;28;20026;-69
2022/06/03 10:01:28;;;;;;;4.18;1.45;;;;;;;;;;5324478;28;20036;-69
2022/06/03 10:04:06;;;;;;;4.93;1.60;;;;;;;;;;5325752;28;20011;-69
2022/06/03 10:06:43;;;;;;;2.75;1.65;;;;;;;;;;5325826;28;20035;-69
2022/06/03 10:18:03;;;;;;;4.07;1.10;;;;;;;;;;5326190;28;20043;-70
2022/06/03 10:20:35;;;;;;;;;;;;;;;;;;5325390;28;20032;-70
2022/06/03 10:23:08;;;;;;;3.55;0.70;;;;;;;;;;5324733;28;19910;-70
2022/06/03 10:25:46;;;;;;;2.35;0.73;;;;;;;;;;5325301;28;20119;-69
2022/06/03 10:28:17;;;;;;;2.45;0.70;;;;;;;;;;5324713;28;20151;-68
2022/06/03 10:30:58;;;;;;;3.05;0.73;;;;;;;;;;5323940;28;20049;-69
2022/06/03 10:33:30;;;;;;;3.13;0.60;;;;;;;;;;5323906;28;20020;-71
2022/06/03 10:36:02;;;;;;;1.63;0.60;;;;;;;;;;5325224;28;20019;-69
2022/06/03 10:38:36;;;;;;;2.13;0.70;;;;;;;;;;5324031;28;20023;-69
2022/06/03 10:41:09;;;;;;;2.58;0.60;;;;;;;;;;5324821;28;20505;-69
2022/06/03 10:43:41;;;;;;;1.20;0.70;;;;;;;;;;5324357;28;20015;-69
2022/06/03 10:46:16;;;;;;;1.70;0.73;;;;;;;;;;5325147;28;20080;-69
2022/06/03 10:48:47;;;;;;;1.92;0.60;;;;;;;;;;5324906;28;20108;-70
2022/06/03 11:02:48;;;;;;;1.40;0.40;;;;;;;;;;5324785;28;20032;-70
2022/06/03 11:05:22;;;;;;;3.25;0.32;;;;;;;;;;5323443;28;20548;-70
2022/06/03 11:08:02;;;;;;;1.70;0.30;;;;;;;;;;5324785;28;20020;-71
2022/06/03 11:10:51;;;;;;;0.70;0.35;;;;;;;;;;5324386;28;20023;-71
2022/06/03 11:13:29;;;;;;;1.88;0.30;;;;;;;;;;5323347;28;20024;-72
2022/06/03 11:16:15;;;;;;;2.60;0.30;;;;;;;;;;5324022;28;20051;-71
2022/06/03 11:18:46;;;;;;;2.30;0.30;;;;;;;;;;5323461;28;20343;-71
2022/06/03 11:21:28;;;;;;;1.10;0.60;;;;;;;;;;5324306;28;20039;-71
2022/06/03 11:23:59;;;;;;;0.88;0.30;;;;;;;;;;5324461;28;20034;-71
2022/06/03 11:26:35;;;;;;;0.55;0.30;;;;;;;;;;5323371;28;20120;-71
2022/06/03 11:29:08;;;;;;;0.85;0.30;;;;;;;;;;5323846;28;20023;-71
2022/06/03 11:31:41;;;;;;;0.90;0.30;;;;;;;;;;5324187;28;20074;-71
2022/06/03 11:34:28;;;;;;;0.82;0.35;;;;;;;;;;5323332;28;20027;-71
2022/06/03 11:37:10;;;;;;;1.35;0.30;;;;;;;;;;5324422;28;20488;-72
2022/06/03 11:39:49;;;;;;;1.25;0.40;;;;;;;;;;5322643;28;20474;-71
2022/06/03 11:42:27;;;;;;;2.10;0.40;;;;;;;;;;5323579;28;20183;-72
2022/06/03 11:45:01;;;;;;;3.00;0.50;;;;;;;;;;5323960;28;20026;-72
2022/06/03 11:47:51;;;;;;;1.02;0.40;;;;;;;;;;5322322;28;20023;-72
2022/06/03 11:50:26;;;;;;;1.40;0.40;;;;;;;;;;5321458;28;20102;-72
2022/06/03 11:52:58;;;;;;;0.90;0.40;;;;;;;;;;5322889;28;20494;-71
2022/06/03 11:55:30;;;;;;;0.80;0.30;;;;;;;;;;5322563;28;20047;-72
2022/06/03 11:58:05;;;;;;;0.73;0.38;;;;;;;;;;5323636;28;20019;-74
2022/06/03 12:00:38;;;;;;;1.00;0.28;;;;;;;;;;5322518;28;20075;-74
2022/06/03 12:03:16;;;;;;;0.63;0.40;;;;;;;;;;5322443;28;20050;-73
2022/06/03 12:05:50;;;;;;;2.97;0.40;;;;;;;;;;5322711;28;20475;-73
2022/06/03 12:08:29;;;;;;;2.33;0.40;;;;;;;;;;5321665;28;20012;-73
2022/06/03 12:11:06;;;;;;;2.35;0.68;;;;;;;;;;5323508;28;20023;-73
2022/06/03 12:13:37;;;;;;;4.60;0.60;;;;;;;;;;5323580;28;20024;-74
2022/06/03 12:16:11;;;;;;;1.87;0.40;;;;;;;;;;5322404;28;20047;-73
2022/06/03 12:18:56;;;;;;;1.00;0.40;;;;;;;;;;5323559;28;20023;-73
2022/06/03 12:21:30;;;;;;;0.70;0.30;;;;;;;;;;5323122;28;20119;-73
2022/06/03 12:24:20;;;;;;;2.95;0.50;;;;;;;;;;5322813;28;20020;-74
2022/06/03 12:26:51;;;;;;;0.60;0.30;;;;;;;;;;5323655;28;20470;-73
2022/06/03 12:29:32;;;;;;;0.60;0.30;;;;;;;;;;5322229;28;20053;-74
2022/06/03 12:32:15;;;;;;;1.27;0.40;;;;;;;;;;5323704;28;20347;-74
2022/06/03 12:34:46;;;;;;;1.20;0.50;;;;;;;;;;5323521;28;20527;-74
2022/06/03 12:37:23;;;;;;;3.33;0.50;;;;;;;;;;5322605;28;20020;-72
2022/06/03 12:39:57;;;;;;;1.15;0.60;;;;;;;;;;5323507;28;20031;-73
2022/06/03 12:42:28;;;;;;;4.20;0.50;;;;;;;;;;5323108;28;20023;-73
2022/06/03 12:44:59;;;;;;;3.28;0.40;;;;;;;;;;5323036;28;20027;-74
2022/06/03 12:47:36;;;;;;;3.17;0.40;;;;;;;;;;5322958;28;20028;-74
2022/06/03 12:50:07;;;;;;;2.92;0.30;;;;;;;;;;5322482;28;20020;-75
2022/06/03 12:52:40;;;;;;;2.20;0.30;;;;;;;;;;5323182;28;20053;-74
2022/06/03 12:55:11;;;;;;;3.08;0.30;;;;;;;;;;5323318;28;20024;-75
2022/06/03 12:58:00;;;;;;;3.17;0.50;;;;;;;;;;5325019;28;20024;-75
2022/06/03 13:00:32;;;;;;;;;;;;;;;;;;5327425;28;20110;-74
2022/06/03 13:03:26;;;;;;;0.65;0.30;;;;;;;;;;5327264;28;20002;-76
2022/06/03 13:05:59;;;;;;;1.17;0.40;;;;;;;;;;5326394;28;20092;-74
2022/06/03 13:08:33;;;;;;;1.58;0.40;;;;;;;;;;5326570;28;20046;-73
2022/06/03 13:11:19;;;;;;;0.77;0.30;;;;;;;;;;5326230;28;20016;-73
2022/06/03 13:13:56;;;;;;;0.95;0.40;;;;;;;;;;5327248;28;20020;-74
2022/06/03 13:16:36;;;;;;;2.67;0.40;;;;;;;;;;5326188;28;20040;-73
2022/06/03 13:19:25;;;;;;;1.95;0.30;;;;;;;;;;5323059;28;20028;-73
2022/06/03 13:22:07;;;;;;;0.63;0.30;;;;;;;;;;5326834;28;20022;-73
2022/06/03 13:24:39;;;;;;;2.08;0.50;;;;;;;;;;5326714;28;20081;-71
2022/06/03 13:27:20;;;;;;;0.68;0.30;;;;;;;;;;5325734;28;20026;-72
2022/06/03 13:29:57;;;;;;;1.38;0.40;;;;;;;;;;5326468;28;20020;-72
2022/06/03 13:32:34;;;;;;;1.00;0.30;;;;;;;;;;5325563;28;20027;-73
2022/06/03 13:35:20;;;;;;;2.13;0.30;;;;;;;;;;5324466;27;20024;-71
2022/06/03 13:38:00;;;;;;;1.42;0.50;;;;;;;;;;5347844;27;20035;-70
2022/06/03 13:40:34;;;;;;;3.45;0.40;;;;;;;;;;5346110;27;20035;-71
2022/06/03 13:43:06;;;;;;;6.47;0.63;;;;;;;;;;5346866;27;20011;-71
2022/06/03 13:45:54;;;;;;;4.35;0.75;;;;;;;;;;5347279;27;20128;-71
2022/06/03 13:48:33;;;;;;;1.02;0.40;;;;;;;;;;5346319;27;20366;-70
2022/06/03 13:51:23;;;;;;;1.27;0.43;;;;;;;;;;5346594;27;20067;-70
2022/06/03 13:53:57;;;;;;;1.92;0.40;;;;;;;;;;5346830;27;20023;-71
2022/06/03 13:56:29;;;;;;;0.85;0.30;;;;;;;;;;5347026;27;20019;-71
2022/06/03 13:59:03;;;;;;;0.90;0.40;;;;;;;;;;5347270;27;20060;-71
2022/06/03 14:01:43;;;;;;;2.70;0.82;;;;;;;;;;5346417;27;20083;-71
2022/06/03 14:04:20;;;;;;;1.35;0.32;;;;;;;;;;5347260;27;20044;-71
2022/06/03 14:06:53;;;;;;;1.13;0.50;;;;;;;;;;5347295;27;20019;-71
2022/06/03 14:09:36;;;;;;;3.42;0.60;;;;;;;;;;5344709;27;20046;-71
2022/06/03 14:12:08;;;;;;;4.93;0.50;;;;;;;;;;5342729;27;20091;-71
2022/06/03 14:14:45;;;;;;;2.53;0.57;;;;;;;;;;5345946;27;20019;-70
2022/06/03 14:17:16;;;;;;;1.95;0.50;;;;;;;;;;5345959;27;20039;-72
2022/06/03 14:20:06;;;;;;;1.38;0.47;;;;;;;;;;5345741;27;20109;-72
2022/06/03 14:22:43;;;;;;;2.50;0.40;;;;;;;;;;5345166;27;20469;-70
2022/06/03 14:25:24;;;;;;;0.85;0.35;;;;;;;;;;5345305;27;20035;-71
2022/06/03 14:28:01;;;;;;;0.95;0.32;;;;;;;;;;5346434;27;20083;-71
2022/06/03 14:30:56;;;;;;;1.17;0.30;;;;;;;;;;5345345;27;20065;-71
2022/06/03 14:33:29;;;;;;;2.58;0.85;;;;;;;;;;5345895;27;20023;-71
2022/06/03 14:36:01;;;;;;;2.55;0.60;;;;;;;;;;5345611;27;20102;-70
2022/06/03 14:38:35;;;;;;;2.15;0.68;;;;;;;;;;5333416;27;20098;-71
2022/06/03 14:41:11;;;;;;;4.95;0.93;;;;;;;;;;5342195;27;20031;-70
2022/06/03 14:43:43;;;;;;;2.75;0.90;;;;;;;;;;5344742;27;20102;-70
2022/06/03 14:46:18;;;;;;;4.85;0.90;;;;;;;;;;5346278;27;20239;-70
2022/06/03 14:48:49;;;;;;;2.92;0.60;;;;;;;;;;5345998;27;20023;-70
2022/06/03 14:51:20;;;;;;;2.88;0.70;;;;;;;;;;5344600;27;20023;-70
2022/06/03 14:53:57;;;;;;;3.40;0.82;;;;;;;;;;5346280;27;20015;-71
2022/06/03 14:56:34;;;;;;;1.60;0.73;;;;;;;;;;5344691;27;20034;-69
2022/06/03 14:59:07;;;;;;;2.95;0.60;;;;;;;;;;5345692;27;20026;-70
2022/06/03 15:01:41;;;;;;;2.13;0.50;;;;;;;;;;5345567;27;20042;-70
2022/06/03 15:04:15;;;;;;;1.20;0.50;;;;;;;;;;5345024;27;20411;-70
2022/06/03 15:06:50;;;;;;;1.83;0.50;;;;;;;;;;5345412;27;20465;-71
2022/06/03 15:09:27;;;;;;;6.93;0.52;;;;;;;;;;5345048;27;20022;-70
2022/06/03 15:12:03;;;;;;;2.42;0.70;;;;;;;;;;5344569;27;20462;-70
2022/06/03 15:14:37;;;;;;;3.60;0.50;;;;;;;;;;5345126;27;20012;-70
2022/06/03 15:17:10;;;;;;;2.42;0.40;;;;;;;;;;5344717;27;20050;-70
2022/06/03 15:19:44;;;;;;;2.28;0.50;;;;;;;;;;5343817;27;20179;-71
2022/06/03 15:22:41;;;;;;;1.00;0.30;;;;;;;;;;5345013;27;20015;-70
2022/06/03 15:25:13;;;;;;;3.50;0.40;;;;;;;;;;5339404;27;20050;-70
2022/06/03 15:27:52;;;;;;;2.10;0.30;;;;;;;;;;5345445;27;20019;-70
2022/06/03 15:30:26;;;;;;;4.88;0.40;;;;;;;;;;5345109;27;20037;-72
2022/06/03 15:32:58;;;;;;;2.30;0.40;;;;;;;;;;5344790;27;20027;-72
2022/06/03 15:35:30;;;;;;;3.42;0.40;;;;;;;;;;5344732;27;20018;-72
2022/06/03 15:38:03;;;;;;;0.95;0.40;;;;;;;;;;5345294;27;20007;-70
2022/06/03 15:40:36;;;;;;;3.40;0.40;;;;;;;;;;5344118;27;20031;-71
2022/06/03 15:43:24;;;;;;;2.60;0.32;;;;;;;;;;5345008;27;20039;-71
2022/06/03 15:45:55;;;;;;;1.73;0.57;;;;;;;;;;5344876;27;20019;-71
2022/06/03 15:48:30;;;;;;;2.03;0.40;;;;;;;;;;5344700;27;20023;-71
2022/06/03 15:51:01;;;;;;;3.85;0.40;;;;;;;;;;5345219;27;20257;-71
2022/06/03 15:53:32;;;;;;;1.40;0.37;;;;;;;;;;5344475;27;20023;-71
2022/06/03 15:56:03;;;;;;;2.60;0.40;;;;;;;;;;5345102;27;20271;-71
2022/06/03 15:58:41;;;;;;;1.77;0.40;;;;;;;;;;5345248;27;20025;-70
2022/06/03 16:01:25;;;;;;;2.03;0.30;;;;;;;;;;5344071;27;20027;-70
2022/06/03 16:04:09;;;;;;;2.90;0.30;;;;;;;;;;5345393;27;20458;-71
2022/06/03 16:06:51;;;;;;;1.88;0.30;;;;;;;;;;5344500;27;20022;-70
2022/06/03 16:09:28;;;;;;;5.22;0.50;;;;;;;;;;5344537;27;20027;-70
2022/06/03 16:12:06;;;;;;;5.57;0.40;;;;;;;;;;5345190;27;20027;-70
2022/06/03 16:14:46;;;;;;;1.42;0.30;;;;;;;;;;5343894;28;20091;-70
2022/06/03 16:17:20;;;;;;;2.05;0.47;;;;;;;;;;5344612;28;20047;-71
2022/06/03 16:20:03;;;;;;;3.05;0.50;;;;;;;;;;5345164;28;20031;-70
2022/06/03 16:22:43;;;;;;;1.70;0.50;;;;;;;;;;5343702;27;20489;-71
2022/06/03 16:25:18;;;;;;;2.53;0.60;;;;;;;;;;5344487;27;20102;-70
2022/06/03 16:28:08;;;;;;;2.05;0.50;;;;;;;;;;5344560;27;20011;-70
2022/06/03 16:30:51;;;;;;;1.38;0.50;;;;;;;;;;5344787;27;20090;-70